Hauptseite
METAR-TAF:

METAR-TAF

Flughäfen :

Flugfeld Wideawake

Georgetown, Ascension

Breite: 07-58S, Länge: 014-24W, Höhe: 86 m

Beobachtung

Neuester Wetterbericht von vor 5 Stunden und 40 Minuten, um 15:50 UTC
Wind 11 kt aus Südost
Temperatur 31°C
Luftfeuchtigkeit 63%
Luftdruck 1009 hPa
Sichtweite 10 km oder mehr
Leicht bewölkt in der Höhe von 2500 ft

METAR: FHAW 131550Z 14011KT 9999 FEW025 31/23 Q1009 NOSIG RMK BLU BLU

Zeit: 21:30 (21:30 UTC)

Prognose

Neuester Wetterbericht von vor 8 Stunden und 15 Minuten, um 13:15 UTC
Gültige Prognose vom 13 um 15 UTC bis 14 um 09 UTC
Wind 10 kt aus Südost
Sichtweite 10 km oder mehr
Leicht bewölkt in der Höhe von 2000 ft
Wahrscheinlichkeit 30% :
Zeitweise
vom 13 um 21 UTC bis 14 um 09 UTC
Sichtweite: 7000 m
Aufgelockert bewölkt in der Höhe von 1600 ft
Regenschauer,

TAF: FHAW 131315Z 1315/1409 14010KT 9999 FEW020 PROB30 TEMPO 1321/1409 7000 SHRA SCT016

Wetterbeobachtungen und Prognosen von mehr als 4000 Flughäfen (METAR und TAF Bericht).

Die verfügbaren Stationen werden durch gelbe und rote Markierungen auf der Karte dargestellt.

Führen Sie die Maus auf sie, um den Namen der Station zu sehen.

Darauf klicken, um die Beobachtung von Wetterbeobachtungen und Prognosen zu sehen.

Um die Karte zu ändern : klicken Sie auf den grünen Tasten mit einem schwarzen Kreuz Zum Vergrößern, auf den grünen Button mit einem Gedankenstrich zu verkleinern, oder auf die grünen Pfeile für benachbarte Karten.


METAR-TAF: